Terminal Aerodrome Forecast
Issued by NWS

Home | Current Version | Previous Version | Text Only | Print | Product List | Glossary On
Versions: 1 2 3 4 5 6 7 8 9 10 11 12 13 14 15 16 17 18 19 20 21 22
000
FTUS46 KMTR 040047 AAA
TAFSNS
TAF AMD
KSNS 040047Z 0401/0424 29013KT P6SM FEW012
     FM040200 29011KT P6SM BKN009
     FM040400 29006KT P6SM OVC007
     FM041200 VRB03KT 4SM BR OVC004
     FM041700 28005KT P6SM BKN009
     FM041800 28007KT P6SM FEW010
     FM042000 29012KT P6SM SKC=

USA.gov is the U.S. government's official web portal to all federal, state and local government web resources and services.